sensor_id;sensor_type;location;lat;lon;timestamp;pressure;altitude;pressure_sealevel;temperature;humidity
31775;BME280;66189;49.000;11.640;2023-03-01T00:01:24;96670.69;;;-1.81;72.69
31775;BME280;66189;49.000;11.640;2023-03-01T00:03:25;96678.06;;;-1.77;72.28
31775;BME280;66189;49.000;11.640;2023-03-01T00:05:25;96679.13;;;-1.79;72.32
31775;BME280;66189;49.000;11.640;2023-03-01T00:07:26;96669.88;;;-1.81;72.54
31775;BME280;66189;49.000;11.640;2023-03-01T00:09:26;96671.47;;;-1.80;72.70
31775;BME280;66189;49.000;11.640;2023-03-01T00:11:29;96669.34;;;-1.78;72.59
31775;BME280;66189;49.000;11.640;2023-03-01T00:13:30;96670.94;;;-1.77;72.51
31775;BME280;66189;49.000;11.640;2023-03-01T00:15:31;96673.84;;;-1.79;72.43
31775;BME280;66189;49.000;11.640;2023-03-01T00:17:32;96669.34;;;-1.78;72.48
31775;BME280;66189;49.000;11.640;2023-03-01T00:19:32;96671.72;;;-1.82;73.11
31775;BME280;66189;49.000;11.640;2023-03-01T00:21:33;96667.75;;;-1.84;73.39
31775;BME280;66189;49.000;11.640;2023-03-01T00:23:35;96667.53;;;-1.77;73.14
31775;BME280;66189;49.000;11.640;2023-03-01T00:25:41;96661.97;;;-1.76;73.00
31775;BME280;66189;49.000;11.640;2023-03-01T00:27:42;96664.09;;;-1.73;73.12
31775;BME280;66189;49.000;11.640;2023-03-01T00:29:42;96668.31;;;-1.77;73.13
31775;BME280;66189;49.000;11.640;2023-03-01T00:31:42;96666.72;;;-1.78;73.13
31775;BME280;66189;49.000;11.640;2023-03-01T00:33:43;96662.25;;;-1.77;73.21
31775;BME280;66189;49.000;11.640;2023-03-01T00:35:44;96663.03;;;-1.77;72.75
31775;BME280;66189;49.000;11.640;2023-03-01T00:37:44;96661.47;;;-1.73;72.98
31775;BME280;66189;49.000;11.640;2023-03-01T00:39:46;96659.88;;;-1.79;72.73
31775;BME280;66189;49.000;11.640;2023-03-01T00:41:46;96663.53;;;-1.75;72.61
31775;BME280;66189;49.000;11.640;2023-03-01T00:43:47;96662.22;;;-1.83;73.28
31775;BME280;66189;49.000;11.640;2023-03-01T00:45:47;96661.94;;;-1.81;73.25
31775;BME280;66189;49.000;11.640;2023-03-01T00:47:49;96664.63;;;-1.76;73.14
31775;BME280;66189;49.000;11.640;2023-03-01T00:49:49;96661.69;;;-1.80;73.08
31775;BME280;66189;49.000;11.640;2023-03-01T00:51:50;96656.69;;;-1.81;73.21
31775;BME280;66189;49.000;11.640;2023-03-01T00:53:55;96659.34;;;-1.76;73.12
31775;BME280;66189;49.000;11.640;2023-03-01T00:55:57;96656.69;;;-1.81;72.83
31775;BME280;66189;49.000;11.640;2023-03-01T00:57:58;96653.78;;;-1.85;73.39
31775;BME280;66189;49.000;11.640;2023-03-01T00:59:59;96653.50;;;-1.83;73.23
31775;BME280;66189;49.000;11.640;2023-03-01T01:01:59;96653.78;;;-1.80;72.72
31775;BME280;66189;49.000;11.640;2023-03-01T01:04:10;96656.16;;;-1.83;73.54
31775;BME280;66189;49.000;11.640;2023-03-01T01:06:23;96658.50;;;-1.92;73.94
31775;BME280;66189;49.000;11.640;2023-03-01T01:08:24;96655.59;;;-1.95;74.09
31775;BME280;66189;49.000;11.640;2023-03-01T01:10:24;96655.09;;;-1.87;73.61
31775;BME280;66189;49.000;11.640;2023-03-01T01:12:25;96653.00;;;-1.85;73.90
31775;BME280;66189;49.000;11.640;2023-03-01T01:14:26;96651.13;;;-1.85;73.35
31775;BME280;66189;49.000;11.640;2023-03-01T01:16:27;96643.50;;;-1.81;73.77
31775;BME280;66189;49.000;11.640;2023-03-01T01:18:28;96641.13;;;-1.83;73.06
31775;BME280;66189;49.000;11.640;2023-03-01T01:20:28;96637.69;;;-1.83;73.26
31775;BME280;66189;49.000;11.640;2023-03-01T01:22:29;96640.06;;;-1.82;72.94
31775;BME280;66189;49.000;11.640;2023-03-01T01:24:29;96634.81;;;-1.71;72.06
31775;BME280;66189;49.000;11.640;2023-03-01T01:26:32;96629.28;;;-1.70;72.25
31775;BME280;66189;49.000;11.640;2023-03-01T01:28:32;96624.25;;;-1.76;72.28
31775;BME280;66189;49.000;11.640;2023-03-01T01:30:33;96624.75;;;-1.80;72.40
31775;BME280;66189;49.000;11.640;2023-03-01T01:32:33;96619.25;;;-1.68;72.11
31775;BME280;66189;49.000;11.640;2023-03-01T01:34:34;96618.97;;;-1.76;72.66
31775;BME280;66189;49.000;11.640;2023-03-01T01:36:34;96620.78;;;-1.87;72.94
31775;BME280;66189;49.000;11.640;2023-03-01T01:38:36;96618.16;;;-1.87;73.41
31775;BME280;66189;49.000;11.640;2023-03-01T01:40:43;96616.84;;;-1.85;72.66
31775;BME280;66189;49.000;11.640;2023-03-01T01:42:44;96612.38;;;-1.84;73.03
31775;BME280;66189;49.000;11.640;2023-03-01T01:44:46;96617.13;;;-1.86;73.08
31775;BME280;66189;49.000;11.640;2023-03-01T01:48:56;96601.81;;;-1.89;73.35
31775;BME280;66189;49.000;11.640;2023-03-01T01:51:00;96604.72;;;-1.91;73.33
31775;BME280;66189;49.000;11.640;2023-03-01T01:53:01;96597.84;;;-1.92;73.33
31775;BME280;66189;49.000;11.640;2023-03-01T01:55:08;96599.16;;;-2.00;73.47
31775;BME280;66189;49.000;11.640;2023-03-01T01:57:14;96600.47;;;-1.97;73.41
31775;BME280;66189;49.000;11.640;2023-03-01T01:59:16;96607.06;;;-1.94;73.60
31775;BME280;66189;49.000;11.640;2023-03-01T02:01:16;96601.00;;;-2.00;73.52
31775;BME280;66189;49.000;11.640;2023-03-01T02:03:22;96608.66;;;-1.93;73.85
31775;BME280;66189;49.000;11.640;2023-03-01T02:07:48;96599.69;;;-1.92;73.14
31775;BME280;66189;49.000;11.640;2023-03-01T02:09:53;96596.78;;;-1.96;73.15
31775;BME280;66189;49.000;11.640;2023-03-01T02:11:53;96595.72;;;-1.95;73.03
31775;BME280;66189;49.000;11.640;2023-03-01T02:13:54;96587.28;;;-2.02;73.31
31775;BME280;66189;49.000;11.640;2023-03-01T02:15:55;96588.59;;;-2.00;73.16
31775;BME280;66189;49.000;11.640;2023-03-01T02:17:56;96594.41;;;-2.08;73.42
31775;BME280;66189;49.000;11.640;2023-03-01T02:20:09;96587.78;;;-2.10;73.43
31775;BME280;66189;49.000;11.640;2023-03-01T02:22:33;96588.56;;;-2.10;73.68
31775;BME280;66189;49.000;11.640;2023-03-01T02:26:47;96577.00;;;-2.14;73.49
31775;BME280;66189;49.000;11.640;2023-03-01T02:28:48;96573.28;;;-2.18;73.05
31775;BME280;66189;49.000;11.640;2023-03-01T02:30:50;96571.16;;;-2.16;73.26
31775;BME280;66189;49.000;11.640;2023-03-01T02:33:10;96566.94;;;-2.27;73.79
31775;BME280;66189;49.000;11.640;2023-03-01T02:35:13;96560.59;;;-2.26;73.38
31775;BME280;66189;49.000;11.640;2023-03-01T02:37:15;96563.78;;;-2.24;73.29
31775;BME280;66189;49.000;11.640;2023-03-01T02:39:25;96557.16;;;-2.32;73.57
31775;BME280;66189;49.000;11.640;2023-03-01T02:41:28;96556.88;;;-2.36;73.76
31775;BME280;66189;49.000;11.640;2023-03-01T02:43:32;96561.88;;;-2.39;74.45
31775;BME280;66189;49.000;11.640;2023-03-01T02:45:33;96552.63;;;-2.42;73.25
31775;BME280;66189;49.000;11.640;2023-03-01T02:47:33;96553.97;;;-2.34;73.43
31775;BME280;66189;49.000;11.640;2023-03-01T02:49:35;96551.56;;;-2.51;74.25
31775;BME280;66189;49.000;11.640;2023-03-01T02:51:45;96548.13;;;-2.52;74.37
31775;BME280;66189;49.000;11.640;2023-03-01T02:55:50;96546.78;;;-2.59;74.33
31775;BME280;66189;49.000;11.640;2023-03-01T02:57:51;96551.00;;;-2.63;74.64
31775;BME280;66189;49.000;11.640;2023-03-01T02:59:52;96549.66;;;-2.66;74.61
31775;BME280;66189;49.000;11.640;2023-03-01T03:01:54;96547.25;;;-2.73;74.68
31775;BME280;66189;49.000;11.640;2023-03-01T03:03:55;96546.50;;;-2.68;74.36
31775;BME280;66189;49.000;11.640;2023-03-01T03:05:55;96541.47;;;-2.70;74.37
31775;BME280;66189;49.000;11.640;2023-03-01T03:07:58;96541.72;;;-2.76;74.63
31775;BME280;66189;49.000;11.640;2023-03-01T03:10:00;96537.81;;;-2.69;74.34
31775;BME280;66189;49.000;11.640;2023-03-01T03:12:02;96537.97;;;-2.86;75.15
31775;BME280;66189;49.000;11.640;2023-03-01T03:14:03;96541.13;;;-2.89;75.19
31775;BME280;66189;49.000;11.640;2023-03-01T03:16:05;96535.91;;;-2.83;74.91
31775;BME280;66189;49.000;11.640;2023-03-01T03:18:08;96530.06;;;-2.91;75.38
31775;BME280;66189;49.000;11.640;2023-03-01T03:20:11;96536.88;;;-2.95;75.43
31775;BME280;66189;49.000;11.640;2023-03-01T03:22:13;96526.63;;;-2.96;75.55
31775;BME280;66189;49.000;11.640;2023-03-01T03:24:13;96524.81;;;-2.91;75.05
31775;BME280;66189;49.000;11.640;2023-03-01T03:26:14;96525.56;;;-2.95;75.54
31775;BME280;66189;49.000;11.640;2023-03-01T03:28:15;96521.06;;;-3.00;75.86
31775;BME280;66189;49.000;11.640;2023-03-01T03:30:18;96514.19;;;-3.06;75.94
31775;BME280;66189;49.000;11.640;2023-03-01T03:32:19;96514.19;;;-3.06;75.74
31775;BME280;66189;49.000;11.640;2023-03-01T03:34:19;96523.13;;;-3.07;76.12
31775;BME280;66189;49.000;11.640;2023-03-01T03:36:22;96518.13;;;-3.14;75.63
31775;BME280;66189;49.000;11.640;2023-03-01T03:38:24;96523.66;;;-3.10;75.94
31775;BME280;66189;49.000;11.640;2023-03-01T03:40:25;96518.63;;;-3.12;75.33
31775;BME280;66189;49.000;11.640;2023-03-01T03:42:26;96521.00;;;-3.15;75.85
31775;BME280;66189;49.000;11.640;2023-03-01T03:44:27;96523.38;;;-3.14;76.01
31775;BME280;66189;49.000;11.640;2023-03-01T03:46:27;96522.81;;;-3.16;75.29
31775;BME280;66189;49.000;11.640;2023-03-01T03:48:28;96517.53;;;-3.21;75.88
31775;BME280;66189;49.000;11.640;2023-03-01T03:50:28;96513.81;;;-3.25;76.39
31775;BME280;66189;49.000;11.640;2023-03-01T03:52:29;96513.06;;;-3.21;75.99
31775;BME280;66189;49.000;11.640;2023-03-01T03:54:29;96513.63;;;-3.18;75.75
31775;BME280;66189;49.000;11.640;2023-03-01T03:56:30;96499.88;;;-3.26;76.23
31775;BME280;66189;49.000;11.640;2023-03-01T03:58:30;96499.06;;;-3.31;76.19
31775;BME280;66189;49.000;11.640;2023-03-01T04:00:31;96504.63;;;-3.28;75.88
31775;BME280;66189;49.000;11.640;2023-03-01T04:02:31;96507.50;;;-3.29;75.90
31775;BME280;66189;49.000;11.640;2023-03-01T04:04:31;96503.00;;;-3.34;75.86
31775;BME280;66189;49.000;11.640;2023-03-01T04:06:32;96509.59;;;-3.31;75.37
31775;BME280;66189;49.000;11.640;2023-03-01T04:08:33;96506.69;;;-3.30;75.40
31775;BME280;66189;49.000;11.640;2023-03-01T04:10:39;96501.44;;;-3.30;75.45
31775;BME280;66189;49.000;11.640;2023-03-01T04:12:40;96505.09;;;-3.36;75.13
31775;BME280;66189;49.000;11.640;2023-03-01T04:14:40;96504.81;;;-3.34;75.09
31775;BME280;66189;49.000;11.640;2023-03-01T04:16:40;96500.38;;;-3.34;75.63
31775;BME280;66189;49.000;11.640;2023-03-01T04:18:41;96499.03;;;-3.36;75.74
31775;BME280;66189;49.000;11.640;2023-03-01T04:20:42;96499.53;;;-3.40;76.11
31775;BME280;66189;49.000;11.640;2023-03-01T04:22:44;96505.59;;;-3.39;75.70
31775;BME280;66189;49.000;11.640;2023-03-01T04:24:47;96499.03;;;-3.36;75.73
31775;BME280;66189;49.000;11.640;2023-03-01T04:26:47;96502.19;;;-3.34;75.91
31775;BME280;66189;49.000;11.640;2023-03-01T04:28:48;96494.28;;;-3.40;75.13
31775;BME280;66189;49.000;11.640;2023-03-01T04:30:51;96496.34;;;-3.42;75.76
31775;BME280;66189;49.000;11.640;2023-03-01T04:32:51;96495.06;;;-3.44;76.02
31775;BME280;66189;49.000;11.640;2023-03-01T04:34:52;96496.06;;;-3.50;76.26
31775;BME280;66189;49.000;11.640;2023-03-01T04:36:52;96493.13;;;-3.54;76.51
31775;BME280;66189;49.000;11.640;2023-03-01T04:38:53;96498.22;;;-3.42;76.04
31775;BME280;66189;49.000;11.640;2023-03-01T04:40:54;96499.97;;;-3.58;76.57
31775;BME280;66189;49.000;11.640;2023-03-01T04:42:55;96496.81;;;-3.55;76.37
31775;BME280;66189;49.000;11.640;2023-03-01T04:44:55;96497.34;;;-3.53;76.23
31775;BME280;66189;49.000;11.640;2023-03-01T04:46:55;96493.94;;;-3.53;76.13
31775;BME280;66189;49.000;11.640;2023-03-01T04:48:56;96497.09;;;-3.51;76.14
31775;BME280;66189;49.000;11.640;2023-03-01T04:50:57;96496.56;;;-3.53;76.11
31775;BME280;66189;49.000;11.640;2023-03-01T04:52:58;96498.88;;;-3.62;76.33
31775;BME280;66189;49.000;11.640;2023-03-01T04:54:58;96497.84;;;-3.61;76.17
31775;BME280;66189;49.000;11.640;2023-03-01T04:56:59;96503.66;;;-3.54;75.78
31775;BME280;66189;49.000;11.640;2023-03-01T04:59:00;96505.41;;;-3.65;75.99
31775;BME280;66189;49.000;11.640;2023-03-01T05:01:00;96506.00;;;-3.58;75.85
31775;BME280;66189;49.000;11.640;2023-03-01T05:03:01;96501.47;;;-3.67;76.49
31775;BME280;66189;49.000;11.640;2023-03-01T05:05:01;96498.84;;;-3.67;76.50
31775;BME280;66189;49.000;11.640;2023-03-01T05:07:02;96502.53;;;-3.63;75.96
31775;BME280;66189;49.000;11.640;2023-03-01T05:09:02;96502.84;;;-3.60;75.60
31775;BME280;66189;49.000;11.640;2023-03-01T05:11:03;96504.97;;;-3.57;75.51
31775;BME280;66189;49.000;11.640;2023-03-01T05:13:03;96502.22;;;-3.72;75.47
31775;BME280;66189;49.000;11.640;2023-03-01T05:15:04;96509.56;;;-3.74;76.03
31775;BME280;66189;49.000;11.640;2023-03-01T05:17:07;96509.63;;;-3.69;75.82
31775;BME280;66189;49.000;11.640;2023-03-01T05:19:08;96504.84;;;-3.72;75.82
31775;BME280;66189;49.000;11.640;2023-03-01T05:21:22;96501.75;;;-3.64;76.40
31775;BME280;66189;49.000;11.640;2023-03-01T05:23:23;96498.09;;;-3.63;75.88
31775;BME280;66189;49.000;11.640;2023-03-01T05:25:24;96499.13;;;-3.64;75.74
31775;BME280;66189;49.000;11.640;2023-03-01T05:27:25;96493.88;;;-3.64;76.05
31775;BME280;66189;49.000;11.640;2023-03-01T05:29:27;96498.28;;;-3.69;75.13
31775;BME280;66189;49.000;11.640;2023-03-01T05:31:28;96492.75;;;-3.73;75.63
31775;BME280;66189;49.000;11.640;2023-03-01T05:33:30;96496.47;;;-3.69;75.27
31775;BME280;66189;49.000;11.640;2023-03-01T05:35:32;96487.78;;;-3.69;75.25
31775;BME280;66189;49.000;11.640;2023-03-01T05:37:33;96489.31;;;-3.73;75.47
31775;BME280;66189;49.000;11.640;2023-03-01T05:39:33;96484.31;;;-3.75;75.52
31775;BME280;66189;49.000;11.640;2023-03-01T05:41:34;96483.78;;;-3.77;75.54
31775;BME280;66189;49.000;11.640;2023-03-01T05:43:34;96489.06;;;-3.72;75.42
31775;BME280;66189;49.000;11.640;2023-03-01T05:45:36;96488.78;;;-3.76;76.02
31775;BME280;66189;49.000;11.640;2023-03-01T05:47:38;96488.00;;;-3.76;75.05
31775;BME280;66189;49.000;11.640;2023-03-01T05:49:38;96481.44;;;-3.73;74.46
31775;BME280;66189;49.000;11.640;2023-03-01T05:51:43;96476.66;;;-3.77;75.23
31775;BME280;66189;49.000;11.640;2023-03-01T05:53:43;96478.31;;;-3.70;75.03
31775;BME280;66189;49.000;11.640;2023-03-01T05:55:44;96476.16;;;-3.73;75.15
31775;BME280;66189;49.000;11.640;2023-03-01T05:57:46;96485.13;;;-3.75;74.89
31775;BME280;66189;49.000;11.640;2023-03-01T05:59:47;96480.94;;;-3.70;75.26
31775;BME280;66189;49.000;11.640;2023-03-01T06:01:47;96485.41;;;-3.71;74.90
31775;BME280;66189;49.000;11.640;2023-03-01T06:03:48;96483.34;;;-3.64;74.92
31775;BME280;66189;49.000;11.640;2023-03-01T06:05:48;96480.69;;;-3.69;74.76
31775;BME280;66189;49.000;11.640;2023-03-01T06:07:49;96486.47;;;-3.67;74.48
31775;BME280;66189;49.000;11.640;2023-03-01T06:09:50;96483.06;;;-3.67;74.65
31775;BME280;66189;49.000;11.640;2023-03-01T06:11:50;96490.38;;;-3.75;74.97
31775;BME280;66189;49.000;11.640;2023-03-01T06:13:51;96483.31;;;-3.69;74.65
31775;BME280;66189;49.000;11.640;2023-03-01T06:15:51;96483.28;;;-3.74;75.03
31775;BME280;66189;49.000;11.640;2023-03-01T06:17:53;96485.19;;;-3.64;74.77
31775;BME280;66189;49.000;11.640;2023-03-01T06:19:55;96489.66;;;-3.65;74.90
31775;BME280;66189;49.000;11.640;2023-03-01T06:21:56;96492.25;;;-3.70;74.63
31775;BME280;66189;49.000;11.640;2023-03-01T06:23:56;96490.47;;;-3.64;74.39
31775;BME280;66189;49.000;11.640;2023-03-01T06:25:57;96492.53;;;-3.66;74.76
31775;BME280;66189;49.000;11.640;2023-03-01T06:27:57;96494.13;;;-3.65;75.25
31775;BME280;66189;49.000;11.640;2023-03-01T06:29:58;96482.81;;;-3.66;75.71
31775;BME280;66189;49.000;11.640;2023-03-01T06:31:58;96491.25;;;-3.59;75.22
31775;BME280;66189;49.000;11.640;2023-03-01T06:33:58;96485.19;;;-3.64;75.30
31775;BME280;66189;49.000;11.640;2023-03-01T06:35:59;96479.94;;;-3.64;75.56
31775;BME280;66189;49.000;11.640;2023-03-01T06:38:03;96480.50;;;-3.57;75.33
31775;BME280;66189;49.000;11.640;2023-03-01T06:40:05;96483.63;;;-3.60;75.48
31775;BME280;66189;49.000;11.640;2023-03-01T06:42:09;96484.72;;;-3.51;74.97
31775;BME280;66189;49.000;11.640;2023-03-01T06:44:12;96475.28;;;-3.47;74.56
31775;BME280;66189;49.000;11.640;2023-03-01T06:46:12;96484.72;;;-3.51;75.13
31775;BME280;66189;49.000;11.640;2023-03-01T06:48:13;96475.38;;;-3.36;74.50
31775;BME280;66189;49.000;11.640;2023-03-01T06:50:14;96479.03;;;-3.37;74.15
31775;BME280;66189;49.000;11.640;2023-03-01T06:52:15;96484.84;;;-3.35;74.51
31775;BME280;66189;49.000;11.640;2023-03-01T06:54:15;96487.50;;;-3.30;74.10
31775;BME280;66189;49.000;11.640;2023-03-01T06:56:17;96490.97;;;-3.19;73.50
31775;BME280;66189;49.000;11.640;2023-03-01T06:58:18;96488.66;;;-3.11;73.41
31775;BME280;66189;49.000;11.640;2023-03-01T07:00:18;96489.22;;;-3.04;73.49
31775;BME280;66189;49.000;11.640;2023-03-01T07:02:19;96486.59;;;-3.04;73.94
31775;BME280;66189;49.000;11.640;2023-03-01T07:04:19;96490.81;;;-2.97;73.22
31775;BME280;66189;49.000;11.640;2023-03-01T07:06:21;96490.06;;;-2.82;72.67
31775;BME280;66189;49.000;11.640;2023-03-01T07:08:21;96485.88;;;-2.78;72.53
31775;BME280;66189;49.000;11.640;2023-03-01T07:10:22;96488.56;;;-2.68;72.42
31775;BME280;66189;49.000;11.640;2023-03-01T07:12:23;96486.19;;;-2.75;72.75
31775;BME280;66189;49.000;11.640;2023-03-01T07:14:23;96484.59;;;-2.76;72.72
31775;BME280;66189;49.000;11.640;2023-03-01T07:16:27;96478.81;;;-2.68;72.53
31775;BME280;66189;49.000;11.640;2023-03-01T07:18:27;96475.66;;;-2.70;72.37
31775;BME280;66189;49.000;11.640;2023-03-01T07:20:28;96475.41;;;-2.58;72.08
31775;BME280;66189;49.000;11.640;2023-03-01T07:22:28;96481.22;;;-2.56;71.55
31775;BME280;66189;49.000;11.640;2023-03-01T07:24:29;96476.47;;;-2.54;71.43
31775;BME280;66189;49.000;11.640;2023-03-01T07:26:29;96470.69;;;-2.40;71.52
31775;BME280;66189;49.000;11.640;2023-03-01T07:28:30;96468.63;;;-2.38;71.54
31775;BME280;66189;49.000;11.640;2023-03-01T07:30:31;96473.91;;;-2.18;70.72
31775;BME280;66189;49.000;11.640;2023-03-01T07:32:32;96474.69;;;-2.22;70.16
31775;BME280;66189;49.000;11.640;2023-03-01T07:34:32;96470.75;;;-2.15;70.48
31775;BME280;66189;49.000;11.640;2023-03-01T07:36:33;96481.56;;;-2.06;69.65
31775;BME280;66189;49.000;11.640;2023-03-01T07:38:33;96481.56;;;-1.95;69.64
31775;BME280;66189;49.000;11.640;2023-03-01T07:40:34;96475.22;;;-1.84;69.54
31775;BME280;66189;49.000;11.640;2023-03-01T07:42:35;96480.25;;;-1.77;68.99
31775;BME280;66189;49.000;11.640;2023-03-01T07:44:35;96472.03;;;-1.66;68.38
31775;BME280;66189;49.000;11.640;2023-03-01T07:46:35;96481.53;;;-1.59;67.78
31775;BME280;66189;49.000;11.640;2023-03-01T07:48:36;96484.69;;;-1.42;67.56
31775;BME280;66189;49.000;11.640;2023-03-01T07:50:36;96472.81;;;-1.50;67.73
31775;BME280;66189;49.000;11.640;2023-03-01T07:52:37;96483.88;;;-1.32;66.68
31775;BME280;66189;49.000;11.640;2023-03-01T07:54:38;96474.91;;;-1.41;66.80
31775;BME280;66189;49.000;11.640;2023-03-01T07:56:38;96473.56;;;-1.18;67.22
31775;BME280;66189;49.000;11.640;2023-03-01T07:58:42;96475.59;;;-1.05;66.51
31775;BME280;66189;49.000;11.640;2023-03-01T08:00:43;96473.75;;;-0.99;66.61
31775;BME280;66189;49.000;11.640;2023-03-01T08:02:43;96475.78;;;-0.81;65.53
31775;BME280;66189;49.000;11.640;2023-03-01T08:04:44;96477.16;;;-0.94;65.63
31775;BME280;66189;49.000;11.640;2023-03-01T08:06:44;96475.78;;;-0.81;65.64
31775;BME280;66189;49.000;11.640;2023-03-01T08:08:45;96468.41;;;-0.84;65.37
31775;BME280;66189;49.000;11.640;2023-03-01T08:10:45;96472.38;;;-0.81;65.29
31775;BME280;66189;49.000;11.640;2023-03-01T08:12:46;96471.03;;;-0.79;64.71
31775;BME280;66189;49.000;11.640;2023-03-01T08:14:46;96472.41;;;-0.86;64.40
31775;BME280;66189;49.000;11.640;2023-03-01T08:16:49;96477.81;;;-0.62;65.46
31775;BME280;66189;49.000;11.640;2023-03-01T08:18:49;96477.22;;;-0.49;65.12
31775;BME280;66189;49.000;11.640;2023-03-01T08:20:50;96464.66;;;-0.28;63.88
31775;BME280;66189;49.000;11.640;2023-03-01T08:22:50;96472.31;;;-0.26;63.82
31775;BME280;66189;49.000;11.640;2023-03-01T08:24:51;96466.44;;;-0.13;63.01
31775;BME280;66189;49.000;11.640;2023-03-01T08:26:51;96466.69;;;-0.14;63.11
31775;BME280;66189;49.000;11.640;2023-03-01T08:28:52;96466.59;;;0.01;63.93
31775;BME280;66189;49.000;11.640;2023-03-01T08:30:52;96464.28;;;-0.11;63.12
31775;BME280;66189;49.000;11.640;2023-03-01T08:32:53;96468.47;;;-0.05;63.32
31775;BME280;66189;49.000;11.640;2023-03-01T08:34:53;96469.38;;;0.20;62.19
31775;BME280;66189;49.000;11.640;2023-03-01T08:36:54;96467.78;;;0.19;62.12
31775;BME280;66189;49.000;11.640;2023-03-01T08:38:54;96468.88;;;0.47;60.58
31775;BME280;66189;49.000;11.640;2023-03-01T08:40:55;96462.75;;;0.76;60.92
31775;BME280;66189;49.000;11.640;2023-03-01T08:42:55;96463.44;;;0.87;60.75
31775;BME280;66189;49.000;11.640;2023-03-01T08:44:56;96458.84;;;1.17;59.58
31775;BME280;66189;49.000;11.640;2023-03-01T08:46:56;96457.56;;;1.33;58.81
31775;BME280;66189;49.000;11.640;2023-03-01T08:48:57;96454.31;;;1.41;59.77
31775;BME280;66189;49.000;11.640;2023-03-01T08:51:07;96455.22;;;1.70;57.90
31775;BME280;66189;49.000;11.640;2023-03-01T08:53:08;96455.88;;;1.62;58.35
31775;BME280;66189;49.000;11.640;2023-03-01T08:55:09;96451.47;;;2.09;58.20
31775;BME280;66189;49.000;11.640;2023-03-01T08:57:09;96446.59;;;2.30;56.75
31775;BME280;66189;49.000;11.640;2023-03-01T08:59:11;96454.53;;;2.16;56.73
31775;BME280;66189;49.000;11.640;2023-03-01T09:01:14;96448.34;;;2.54;56.02
31775;BME280;66189;49.000;11.640;2023-03-01T09:03:15;96443.91;;;2.49;55.57
31775;BME280;66189;49.000;11.640;2023-03-01T09:05:15;96433.66;;;2.56;55.60
31775;BME280;66189;49.000;11.640;2023-03-01T09:07:16;96429.19;;;2.71;54.90
31775;BME280;66189;49.000;11.640;2023-03-01T09:09:17;96425.34;;;2.77;54.80
31775;BME280;66189;49.000;11.640;2023-03-01T09:11:20;96428.09;;;2.86;54.77
31775;BME280;66189;49.000;11.640;2023-03-01T09:13:21;96423.94;;;3.21;54.52
31775;BME280;66189;49.000;11.640;2023-03-01T09:15:24;96427.34;;;3.49;53.81
31775;BME280;66189;49.000;11.640;2023-03-01T09:17:25;96424.13;;;3.75;52.81
31775;BME280;66189;49.000;11.640;2023-03-01T09:19:25;96408.88;;;3.89;52.44
31775;BME280;66189;49.000;11.640;2023-03-01T09:21:26;96417.53;;;4.26;52.66
31775;BME280;66189;49.000;11.640;2023-03-01T09:23:26;96416.91;;;4.52;52.28
31775;BME280;66189;49.000;11.640;2023-03-01T09:25:28;96411.66;;;4.70;51.43
31775;BME280;66189;49.000;11.640;2023-03-01T09:27:29;96415.50;;;4.95;49.29
31775;BME280;66189;49.000;11.640;2023-03-01T09:29:29;96406.75;;;4.63;50.66
31775;BME280;66189;49.000;11.640;2023-03-01T09:31:29;96400.00;;;4.97;50.51
31775;BME280;66189;49.000;11.640;2023-03-01T09:33:31;96403.31;;;5.11;49.61
31775;BME280;66189;49.000;11.640;2023-03-01T09:35:32;96402.28;;;5.30;49.34
31775;BME280;66189;49.000;11.640;2023-03-01T09:37:34;96401.50;;;5.73;47.81
31775;BME280;66189;49.000;11.640;2023-03-01T09:39:35;96402.75;;;5.84;47.17
31775;BME280;66189;49.000;11.640;2023-03-01T09:42:01;96411.38;;;5.90;46.91
31775;BME280;66189;49.000;11.640;2023-03-01T09:44:10;96405.59;;;5.79;47.33
31775;BME280;66189;49.000;11.640;2023-03-01T09:46:14;96401.19;;;6.10;46.31
31775;BME280;66189;49.000;11.640;2023-03-01T09:48:20;96406.03;;;6.16;45.46
31775;BME280;66189;49.000;11.640;2023-03-01T09:50:26;96402.59;;;5.81;44.58
31775;BME280;66189;49.000;11.640;2023-03-01T09:52:40;96407.47;;;5.70;45.74
31775;BME280;66189;49.000;11.640;2023-03-01T09:54:41;96399.94;;;6.07;44.69
31775;BME280;66189;49.000;11.640;2023-03-01T09:56:52;96404.63;;;6.19;44.90
31775;BME280;66189;49.000;11.640;2023-03-01T10:03:39;96395.84;;;6.01;44.85
31775;BME280;66189;49.000;11.640;2023-03-01T10:05:59;96398.66;;;6.13;44.13
31775;BME280;66189;49.000;11.640;2023-03-01T10:10:22;96400.97;;;6.41;45.34
31775;BME280;66189;49.000;11.640;2023-03-01T10:12:34;96399.91;;;6.25;45.72
31775;BME280;66189;49.000;11.640;2023-03-01T10:14:40;96394.34;;;6.47;43.60
31775;BME280;66189;49.000;11.640;2023-03-01T10:19:05;96391.84;;;6.42;43.96
31775;BME280;66189;49.000;11.640;2023-03-01T10:21:18;96394.25;;;6.26;44.63
31775;BME280;66189;49.000;11.640;2023-03-01T10:23:19;96379.84;;;6.96;44.15
31775;BME280;66189;49.000;11.640;2023-03-01T10:28:02;96372.19;;;7.15;43.67
31775;BME280;66189;49.000;11.640;2023-03-01T10:32:26;96369.72;;;7.52;42.29
31775;BME280;66189;49.000;11.640;2023-03-01T10:34:31;96369.13;;;7.68;42.11
31775;BME280;66189;49.000;11.640;2023-03-01T10:36:33;96368.47;;;7.50;42.04
31775;BME280;66189;49.000;11.640;2023-03-01T10:38:52;96360.41;;;7.71;41.82
31775;BME280;66189;49.000;11.640;2023-03-01T10:41:04;96364.47;;;7.56;41.98
31775;BME280;66189;49.000;11.640;2023-03-01T10:43:05;96354.75;;;8.06;41.94
31775;BME280;66189;49.000;11.640;2023-03-01T10:47:27;96350.22;;;8.18;40.21
31775;BME280;66189;49.000;11.640;2023-03-01T10:49:27;96342.56;;;6.90;42.21
31775;BME280;66189;49.000;11.640;2023-03-01T10:51:28;96343.84;;;7.56;41.27
31775;BME280;66189;49.000;11.640;2023-03-01T10:53:35;96349.44;;;7.85;41.18
31775;BME280;66189;49.000;11.640;2023-03-01T10:55:38;96328.88;;;8.22;40.42
31775;BME280;66189;49.000;11.640;2023-03-01T10:57:40;96331.13;;;8.32;39.92
31775;BME280;66189;49.000;11.640;2023-03-01T10:59:41;96332.56;;;8.30;38.99
31775;BME280;66189;49.000;11.640;2023-03-01T11:01:41;96328.50;;;8.45;39.52
31775;BME280;66189;49.000;11.640;2023-03-01T11:03:42;96322.72;;;8.09;39.94
31775;BME280;66189;49.000;11.640;2023-03-01T11:06:04;96323.38;;;7.18;40.81